createdAt,value
2022-09-12T00:01:16.920Z,22.88
2022-09-12T00:03:43.747Z,23.08
2022-09-12T00:06:21.974Z,24.75
2022-09-12T00:08:49.619Z,25.90
2022-09-12T00:11:16.039Z,25.55
2022-09-12T00:13:43.395Z,25.27
2022-09-12T00:16:25.582Z,24.65
2022-09-12T00:18:53.680Z,24.63
2022-09-12T00:21:21.656Z,25.27
2022-09-12T00:23:48.950Z,25.38
2022-09-12T00:26:17.259Z,25.70
2022-09-12T00:28:44.478Z,26.50
2022-09-12T00:31:14.577Z,26.65
2022-09-12T00:33:41.414Z,25.92
2022-09-12T00:36:12.259Z,26.23
2022-09-12T00:38:41.879Z,25.33
2022-09-12T00:41:15.267Z,25.50
2022-09-12T00:43:56.591Z,25.42
2022-09-12T00:46:49.646Z,25.52
2022-09-12T00:49:49.866Z,25.83
2022-09-12T00:52:42.038Z,26.00
2022-09-12T00:55:19.394Z,25.48
2022-09-12T00:57:54.198Z,25.50
2022-09-12T01:00:23.320Z,26.35
2022-09-12T01:02:56.798Z,26.65
2022-09-12T01:05:25.699Z,26.17
2022-09-12T01:07:53.031Z,27.70
2022-09-12T01:10:19.895Z,27.27
2022-09-12T01:12:46.499Z,27.48
2022-09-12T01:15:13.402Z,27.42
2022-09-12T01:18:02.079Z,26.38
2022-09-12T01:20:49.760Z,26.42
2022-09-12T01:23:31.170Z,26.17
2022-09-12T01:26:09.578Z,25.83
2022-09-12T01:28:57.482Z,26.15
2022-09-12T01:31:48.309Z,26.23
2022-09-12T01:34:28.386Z,26.23
2022-09-12T01:37:11.377Z,25.90
2022-09-12T01:39:53.757Z,26.92
2022-09-12T01:42:29.345Z,26.60
2022-09-12T01:45:00.049Z,25.42
2022-09-12T01:47:56.560Z,26.13
2022-09-12T01:50:28.962Z,26.90
2022-09-12T01:53:09.618Z,27.33
2022-09-12T01:55:42.427Z,27.17
2022-09-12T01:58:18.901Z,26.88
2022-09-12T02:01:09.620Z,26.83
2022-09-12T02:03:52.376Z,27.63
2022-09-12T02:06:23.798Z,27.45
2022-09-12T02:08:58.588Z,26.35
2022-09-12T02:11:25.104Z,26.60
2022-09-12T02:14:01.146Z,26.98
2022-09-12T02:16:49.419Z,27.08
2022-09-12T02:19:20.224Z,27.63
2022-09-12T02:21:53.439Z,27.00
2022-09-12T02:24:23.204Z,26.88
2022-09-12T02:27:05.272Z,26.27
2022-09-12T02:29:31.912Z,27.63
2022-09-12T02:32:01.808Z,26.83
2022-09-12T02:34:55.120Z,28.55
2022-09-12T02:37:39.607Z,27.17
2022-09-12T02:40:08.919Z,27.13
2022-09-12T02:42:36.937Z,27.77
2022-09-12T02:45:04.041Z,28.55
2022-09-12T02:47:52.477Z,28.80
2022-09-12T02:50:19.354Z,27.33
2022-09-12T02:52:46.463Z,28.27
2022-09-12T02:55:14.687Z,28.15
2022-09-12T02:57:41.076Z,28.75
2022-09-12T03:00:08.761Z,28.92
2022-09-12T03:03:14.622Z,29.45
2022-09-12T03:05:55.571Z,28.55
2022-09-12T03:08:31.273Z,28.77
2022-09-12T03:11:16.461Z,28.02
2022-09-12T03:14:48.525Z,28.88
2022-09-12T03:17:43.811Z,29.25
2022-09-12T03:20:13.655Z,29.38
2022-09-12T03:22:53.741Z,28.25
2022-09-12T03:25:30.846Z,28.20
2022-09-12T03:28:06.160Z,28.23
2022-09-12T03:30:41.062Z,28.83
2022-09-12T03:33:11.753Z,28.50
2022-09-12T03:35:38.341Z,27.92
2022-09-12T03:38:05.196Z,28.15
2022-09-12T03:40:31.743Z,28.58
2022-09-12T03:42:58.447Z,28.35
2022-09-12T03:45:25.051Z,28.23
2022-09-12T03:47:51.513Z,27.73
2022-09-12T03:50:18.160Z,27.90
2022-09-12T03:52:44.571Z,28.73
2022-09-12T03:55:10.963Z,28.67
2022-09-12T03:57:37.343Z,28.42
2022-09-12T04:00:05.921Z,28.58
2022-09-12T04:02:32.405Z,29.00
2022-09-12T04:04:58.958Z,28.83
2022-09-12T04:07:25.412Z,29.10
2022-09-12T04:09:53.144Z,29.67
2022-09-12T04:12:20.086Z,29.13
2022-09-12T04:14:46.565Z,28.55
2022-09-12T04:17:13.361Z,29.08
2022-09-12T04:19:39.821Z,29.25
2022-09-12T04:22:06.236Z,28.95
2022-09-12T04:24:32.656Z,28.70
2022-09-12T04:26:59.061Z,29.15
2022-09-12T04:29:25.491Z,28.17
2022-09-12T04:31:52.073Z,28.50
2022-09-12T04:34:18.717Z,28.63
2022-09-12T04:36:45.063Z,28.23
2022-09-12T04:39:12.188Z,27.80
2022-09-12T04:41:40.623Z,28.45
2022-09-12T04:44:11.515Z,27.92
2022-09-12T04:46:42.331Z,28.15
2022-09-12T04:49:09.308Z,27.33
2022-09-12T04:51:37.869Z,28.27
2022-09-12T04:54:07.540Z,27.75
2022-09-12T04:56:38.960Z,28.48
2022-09-12T04:59:05.757Z,28.10
2022-09-12T05:01:32.379Z,28.52
2022-09-12T05:04:00.012Z,28.85
2022-09-12T05:06:32.933Z,29.73
2022-09-12T05:09:00.325Z,28.42
2022-09-12T05:11:46.798Z,29.08
2022-09-12T05:14:16.303Z,28.85
2022-09-12T05:16:47.215Z,27.60
2022-09-12T05:19:15.589Z,28.73
2022-09-12T05:21:42.111Z,29.60
2022-09-12T05:24:11.375Z,29.35
2022-09-12T05:26:37.935Z,29.52
2022-09-12T05:29:05.575Z,29.23
2022-09-12T05:31:31.965Z,29.13
2022-09-12T05:33:58.460Z,29.85
2022-09-12T05:36:30.011Z,29.08
2022-09-12T05:38:59.130Z,30.13
2022-09-12T05:41:30.868Z,30.25
2022-09-12T05:43:59.046Z,29.35
2022-09-12T05:46:28.353Z,30.13
2022-09-12T05:48:56.647Z,30.15
2022-09-12T05:51:28.744Z,30.48
2022-09-12T05:53:58.199Z,30.02
2022-09-12T05:56:27.383Z,31.00
2022-09-12T05:59:05.587Z,31.52
2022-09-12T06:01:33.792Z,33.88
2022-09-12T06:04:03.459Z,34.47
2022-09-12T06:06:31.839Z,33.38
2022-09-12T06:09:01.016Z,35.72
2022-09-12T06:11:29.623Z,36.13
2022-09-12T06:13:57.818Z,39.08
2022-09-12T06:16:27.256Z,41.10
2022-09-12T06:18:56.587Z,38.88
2022-09-12T06:21:24.691Z,39.15
2022-09-12T06:23:51.289Z,41.67
2022-09-12T06:26:21.491Z,44.50
2022-09-12T06:31:20.477Z,43.35
2022-09-12T06:33:50.199Z,46.53
2022-09-12T06:36:22.130Z,48.65
2022-09-12T06:38:53.372Z,52.47
2022-09-12T06:41:19.748Z,52.35
2022-09-12T06:43:46.264Z,54.28
2022-09-12T06:46:13.434Z,54.25
2022-09-12T06:48:42.129Z,55.47
2022-09-12T06:51:16.578Z,55.85
2022-09-12T06:53:44.712Z,55.47
2022-09-12T06:56:20.264Z,54.38
2022-09-12T06:58:48.652Z,53.58
2022-09-12T07:01:21.033Z,53.22
2022-09-12T07:03:52.755Z,52.80
2022-09-12T07:06:21.952Z,53.03
2022-09-12T07:08:48.647Z,52.58
2022-09-12T07:11:20.098Z,51.83
2022-09-12T07:13:49.464Z,50.95
2022-09-12T07:16:19.754Z,48.17
2022-09-12T07:18:51.987Z,47.28
2022-09-12T07:21:18.785Z,46.25
2022-09-12T07:23:45.571Z,44.20
2022-09-12T07:26:14.132Z,40.47
2022-09-12T07:28:41.132Z,40.45
2022-09-12T07:31:09.100Z,39.47
2022-09-12T07:33:36.425Z,37.38
2022-09-12T07:36:05.604Z,33.05
2022-09-12T07:38:32.053Z,34.10
2022-09-12T07:40:58.944Z,33.58
2022-09-12T07:43:25.500Z,35.30
2022-09-12T07:45:56.669Z,33.80
2022-09-12T07:48:23.536Z,32.90
2022-09-12T07:51:01.384Z,31.98
2022-09-12T07:53:32.958Z,29.15
2022-09-12T07:55:59.748Z,26.80
2022-09-12T07:58:26.824Z,27.75
2022-09-12T08:00:53.606Z,23.77
2022-09-12T08:03:20.168Z,23.50
2022-09-12T08:05:46.575Z,23.70
2022-09-12T08:08:13.346Z,22.92
2022-09-12T08:10:39.719Z,23.30
2022-09-12T08:13:08.278Z,20.00
2022-09-12T08:15:36.581Z,20.75
2022-09-12T08:18:03.050Z,18.30
2022-09-12T08:20:30.176Z,18.27
2022-09-12T08:22:56.584Z,18.13
2022-09-12T08:25:23.407Z,17.48
2022-09-12T08:27:50.171Z,16.60
2022-09-12T08:30:16.556Z,15.85
2022-09-12T08:32:42.920Z,16.00
2022-09-12T08:35:09.503Z,14.38
2022-09-12T08:37:35.937Z,14.18
2022-09-12T08:40:02.580Z,14.18
2022-09-12T08:43:14.139Z,13.07
2022-09-12T08:45:54.264Z,13.23
2022-09-12T08:50:49.895Z,12.80
2022-09-12T08:53:21.277Z,12.10
2022-09-12T08:55:56.168Z,11.95
2022-09-12T08:58:24.583Z,11.80
2022-09-12T09:01:07.300Z,11.70
2022-09-12T09:03:52.248Z,11.25
2022-09-12T09:06:42.415Z,11.82
2022-09-12T09:09:17.955Z,11.50
2022-09-12T09:11:55.486Z,11.18
2022-09-12T09:14:49.337Z,11.07
2022-09-12T09:17:27.517Z,10.40
2022-09-12T09:20:02.372Z,10.63
2022-09-12T09:22:38.002Z,10.52
2022-09-12T09:25:11.032Z,10.10
2022-09-12T09:28:09.589Z,10.30
2022-09-12T09:30:36.963Z,10.93
2022-09-12T09:33:10.304Z,12.07
2022-09-12T09:35:44.847Z,11.30
2022-09-12T09:38:34.093Z,11.80
2022-09-12T09:41:08.418Z,11.43
2022-09-12T09:43:37.566Z,11.43
2022-09-12T09:46:04.601Z,11.20
2022-09-12T09:48:33.698Z,10.90
2022-09-12T09:51:02.491Z,10.60
2022-09-12T09:54:01.451Z,10.25
2022-09-12T09:56:27.930Z,10.20
2022-09-12T09:58:54.526Z,9.50
2022-09-12T10:01:21.170Z,10.50
2022-09-12T10:03:51.365Z,9.95
2022-09-12T10:06:20.938Z,9.70
2022-09-12T10:08:48.770Z,9.55
2022-09-12T10:11:15.054Z,9.90
2022-09-12T10:13:50.451Z,9.60
2022-09-12T10:16:31.883Z,8.98
2022-09-12T10:19:03.722Z,9.43
2022-09-12T10:21:50.765Z,9.30
2022-09-12T10:24:22.980Z,9.30
2022-09-12T10:26:57.199Z,9.50
2022-09-12T10:29:31.844Z,8.70
2022-09-12T10:32:02.121Z,8.68
2022-09-12T10:34:37.717Z,8.85
2022-09-12T10:37:32.471Z,8.80
2022-09-12T10:40:00.605Z,9.00
2022-09-12T10:42:50.047Z,9.25
2022-09-12T10:45:37.413Z,9.27
2022-09-12T10:48:27.408Z,8.63
2022-09-12T10:50:53.798Z,8.88
2022-09-12T10:53:29.914Z,8.63
2022-09-12T10:56:05.025Z,8.95
2022-09-12T10:58:59.961Z,8.55
2022-09-12T11:01:38.688Z,8.75
2022-09-12T11:04:27.598Z,8.00
2022-09-12T11:07:21.779Z,8.10
2022-09-12T11:10:06.927Z,8.57
2022-09-12T11:12:55.623Z,8.40
2022-09-12T11:15:53.021Z,8.02
2022-09-12T11:18:34.846Z,8.07
2022-09-12T11:21:10.409Z,8.18
2022-09-12T11:23:45.557Z,8.00
2022-09-12T11:26:18.981Z,8.38
2022-09-12T11:29:02.279Z,8.10
2022-09-12T11:31:40.311Z,7.97
2022-09-12T11:34:11.579Z,8.75
2022-09-12T11:36:47.760Z,8.88
2022-09-12T11:39:34.214Z,8.98
2022-09-12T11:42:05.490Z,8.60
2022-09-12T11:44:43.437Z,8.43
2022-09-12T11:47:13.681Z,8.80
2022-09-12T11:49:44.171Z,9.00
2022-09-12T11:52:16.835Z,8.65
2022-09-12T11:54:53.691Z,8.43
2022-09-12T11:57:30.934Z,8.80
2022-09-12T12:00:17.723Z,8.40
2022-09-12T12:02:59.162Z,8.82
2022-09-12T12:05:31.501Z,8.93
2022-09-12T12:08:01.065Z,8.77
2022-09-12T12:10:34.584Z,8.80
2022-09-12T12:13:10.706Z,8.85
2022-09-12T12:15:39.971Z,9.38
2022-09-12T12:18:18.906Z,9.13
2022-09-12T12:20:45.694Z,8.67
2022-09-12T12:23:31.818Z,9.00
2022-09-12T12:26:03.768Z,8.85
2022-09-12T12:28:44.524Z,9.07
2022-09-12T12:31:11.352Z,8.50
2022-09-12T12:33:37.748Z,8.70
2022-09-12T12:36:09.881Z,8.93
2022-09-12T12:38:38.817Z,8.60
2022-09-12T12:41:17.319Z,8.70
2022-09-12T12:43:52.011Z,9.18
2022-09-12T12:46:28.538Z,8.88
2022-09-12T12:49:09.643Z,8.88
2022-09-12T12:51:45.024Z,8.88
2022-09-12T12:54:29.715Z,8.77
2022-09-12T12:57:17.538Z,9.10
2022-09-12T12:59:55.059Z,8.85
2022-09-12T13:02:35.905Z,9.10
2022-09-12T13:05:06.492Z,8.70
2022-09-12T13:07:37.610Z,9.57
2022-09-12T13:10:07.232Z,29.45
2022-09-12T13:12:45.823Z,16.52
2022-09-12T13:15:34.098Z,10.10
2022-09-12T13:18:12.512Z,12.70
2022-09-12T13:20:54.212Z,12.25
2022-09-12T13:23:30.243Z,9.88
2022-09-12T13:26:01.747Z,9.48
2022-09-12T13:28:30.873Z,9.27
2022-09-12T13:31:11.822Z,9.80
2022-09-12T13:33:48.988Z,9.20
2022-09-12T13:36:27.594Z,9.27
2022-09-12T13:39:19.035Z,9.85
2022-09-12T13:42:04.397Z,9.90
2022-09-12T13:44:35.325Z,9.95
2022-09-12T13:47:03.735Z,10.45
2022-09-12T13:49:36.003Z,9.45
2022-09-12T13:52:25.249Z,9.43
2022-09-12T13:54:55.078Z,9.63
2022-09-12T14:00:19.262Z,9.75
2022-09-12T14:02:47.807Z,9.45
2022-09-12T14:05:22.085Z,9.65
2022-09-12T14:07:54.712Z,10.80
2022-09-12T14:10:28.418Z,10.68
2022-09-12T14:12:57.382Z,11.48
2022-09-12T14:15:27.448Z,10.90
2022-09-12T14:18:01.205Z,10.55
2022-09-12T14:20:36.178Z,10.70
2022-09-12T14:23:09.721Z,9.90
2022-09-12T14:25:41.457Z,10.82
2022-09-12T14:28:13.475Z,9.63
2022-09-12T14:30:39.931Z,10.80
2022-09-12T14:33:10.478Z,10.52
2022-09-12T14:35:51.499Z,9.02
2022-09-12T14:38:22.229Z,9.27
2022-09-12T14:40:53.004Z,9.00
2022-09-12T14:43:29.745Z,10.10
2022-09-12T14:46:05.603Z,10.98
2022-09-12T14:48:37.742Z,10.30
2022-09-12T14:51:05.337Z,8.48
2022-09-12T14:53:36.887Z,8.45
2022-09-12T14:56:08.933Z,10.82
2022-09-12T14:58:35.452Z,10.60
2022-09-12T15:01:23.290Z,8.80
2022-09-12T15:03:54.102Z,8.82
2022-09-12T15:06:23.105Z,8.30
2022-09-12T15:08:49.805Z,8.88
2022-09-12T15:11:16.736Z,9.68
2022-09-12T15:13:43.421Z,10.18
2022-09-12T15:16:11.958Z,9.73
2022-09-12T15:18:39.113Z,10.40
2022-09-12T15:21:08.506Z,10.20
2022-09-12T15:23:53.855Z,10.00
2022-09-12T15:26:30.412Z,9.88
2022-09-12T15:28:56.818Z,9.43
2022-09-12T15:31:29.553Z,15.05
2022-09-12T15:33:57.526Z,10.88
2022-09-12T15:36:24.867Z,10.63
2022-09-12T15:38:52.322Z,9.90
2022-09-12T15:41:21.853Z,10.40
2022-09-12T15:43:49.893Z,9.73
2022-09-12T15:46:17.796Z,9.90
2022-09-12T15:48:44.767Z,10.30
2022-09-12T15:51:16.041Z,9.95
2022-09-12T15:53:43.099Z,11.00
2022-09-12T15:56:09.580Z,10.70
2022-09-12T15:58:36.260Z,9.90
2022-09-12T16:01:02.972Z,9.85
2022-09-12T16:03:30.119Z,9.68
2022-09-12T16:05:59.576Z,10.68
2022-09-12T16:08:26.055Z,10.15
2022-09-12T16:11:19.772Z,9.70
2022-09-12T16:13:46.115Z,9.60
2022-09-12T16:16:12.547Z,9.70
2022-09-12T16:18:40.065Z,9.20
2022-09-12T16:21:09.006Z,9.55
2022-09-12T16:23:39.343Z,9.43
2022-09-12T16:26:06.600Z,10.20
2022-09-12T16:28:33.615Z,9.70
2022-09-12T16:31:02.374Z,10.38
2022-09-12T16:33:29.497Z,9.82
2022-09-12T16:36:22.107Z,9.30
2022-09-12T16:38:53.687Z,9.10
2022-09-12T16:41:24.626Z,9.50
2022-09-12T16:43:51.806Z,9.40
2022-09-12T16:46:23.769Z,9.73
2022-09-12T16:48:55.865Z,10.05
2022-09-12T16:51:27.687Z,10.18
2022-09-12T16:53:55.330Z,9.45
2022-09-12T16:56:22.321Z,9.57
2022-09-12T16:58:49.167Z,10.05
2022-09-12T17:01:21.155Z,9.52
2022-09-12T17:03:48.156Z,9.73
2022-09-12T17:06:18.055Z,10.02
2022-09-12T17:08:48.145Z,9.57
2022-09-12T17:11:17.882Z,9.65
2022-09-12T17:14:06.131Z,9.80
2022-09-12T17:16:38.529Z,10.82
2022-09-12T17:19:06.267Z,10.77
2022-09-12T17:21:32.953Z,10.38
2022-09-12T17:23:59.530Z,10.52
2022-09-12T17:26:26.092Z,10.23
2022-09-12T17:28:52.763Z,10.10
2022-09-12T17:31:19.692Z,10.20
2022-09-12T17:33:46.355Z,10.55
2022-09-12T17:36:16.252Z,10.35
2022-09-12T17:38:46.329Z,10.52
2022-09-12T17:43:52.762Z,9.93
2022-09-12T17:46:20.686Z,10.82
2022-09-12T17:48:55.125Z,10.68
2022-09-12T17:51:24.882Z,11.07
2022-09-12T17:54:02.454Z,10.45
2022-09-12T17:56:31.262Z,10.07
2022-09-12T17:58:59.066Z,10.90
2022-09-12T18:01:45.866Z,10.63
2022-09-12T18:04:12.560Z,10.73
2022-09-12T18:06:40.857Z,10.55
2022-09-12T18:09:09.286Z,10.73
2022-09-12T18:11:35.993Z,11.13
2022-09-12T18:14:02.853Z,11.32
2022-09-12T18:16:31.329Z,11.60
2022-09-12T18:19:01.444Z,11.85
2022-09-12T18:23:58.900Z,11.60
2022-09-12T18:26:26.799Z,12.07
2022-09-12T18:28:53.425Z,11.95
2022-09-12T18:31:22.477Z,11.55
2022-09-12T18:33:49.779Z,12.13
2022-09-12T18:36:17.516Z,11.60
2022-09-12T18:38:44.346Z,12.50
2022-09-12T18:41:16.962Z,12.70
2022-09-12T18:43:43.907Z,12.18
2022-09-12T18:46:13.616Z,12.70
2022-09-12T18:48:40.613Z,12.57
2022-09-12T18:51:14.737Z,12.52
2022-09-12T18:53:42.653Z,12.65
2022-09-12T18:56:13.440Z,12.52
2022-09-12T18:58:42.670Z,12.18
2022-09-12T19:01:17.045Z,12.47
2022-09-12T19:03:44.222Z,12.00
2022-09-12T19:06:13.572Z,12.15
2022-09-12T19:08:40.917Z,11.88
2022-09-12T19:11:08.868Z,12.45
2022-09-12T19:13:37.434Z,12.65
2022-09-12T19:16:05.344Z,12.52
2022-09-12T19:18:33.995Z,11.80
2022-09-12T19:21:01.444Z,12.27
2022-09-12T19:23:27.902Z,12.10
2022-09-12T19:25:59.696Z,12.77
2022-09-12T19:28:26.747Z,12.85
2022-09-12T19:30:53.594Z,12.85
2022-09-12T19:33:21.266Z,12.30
2022-09-12T19:35:48.269Z,12.70
2022-09-12T19:38:15.730Z,11.20
2022-09-12T19:40:42.978Z,12.35
2022-09-12T19:43:09.742Z,11.20
2022-09-12T19:45:36.496Z,12.63
2022-09-12T19:48:03.555Z,12.23
2022-09-12T19:50:32.467Z,11.88
2022-09-12T19:52:58.853Z,11.70
2022-09-12T19:55:25.335Z,11.80
2022-09-12T19:57:51.769Z,11.90
2022-09-12T20:00:18.203Z,11.80
2022-09-12T20:02:50.122Z,12.43
2022-09-12T20:05:16.607Z,11.88
2022-09-12T20:07:43.365Z,12.23
2022-09-12T20:10:09.922Z,12.38
2022-09-12T20:12:36.490Z,12.38
2022-09-12T20:15:03.612Z,12.00
2022-09-12T20:17:29.998Z,12.55
2022-09-12T20:19:56.370Z,12.02
2022-09-12T20:22:22.777Z,12.63
2022-09-12T20:24:49.342Z,12.15
2022-09-12T20:27:16.542Z,11.65
2022-09-12T20:29:43.342Z,11.80
2022-09-12T20:32:09.702Z,11.60
2022-09-12T20:34:36.308Z,11.70
2022-09-12T20:37:02.646Z,12.07
2022-09-12T20:39:29.135Z,11.63
2022-09-12T20:41:55.837Z,11.88
2022-09-12T20:44:22.339Z,12.35
2022-09-12T20:46:48.847Z,11.57
2022-09-12T20:49:15.297Z,12.10
2022-09-12T20:51:41.684Z,11.43
2022-09-12T20:54:08.163Z,10.90
2022-09-12T20:56:36.180Z,11.30
2022-09-12T20:59:03.912Z,11.25
2022-09-12T21:01:31.593Z,11.70
2022-09-12T21:03:59.835Z,11.10
2022-09-12T21:06:26.720Z,10.50
2022-09-12T21:08:58.431Z,10.70
2022-09-12T21:11:24.838Z,11.43
2022-09-12T21:13:52.258Z,11.05
2022-09-12T21:16:21.429Z,10.80
2022-09-12T21:18:53.929Z,11.00
2022-09-12T21:21:20.866Z,11.30
2022-09-12T21:23:47.459Z,11.00
2022-09-12T21:26:13.921Z,10.88
2022-09-12T21:28:40.399Z,11.00
2022-09-12T21:31:06.953Z,10.55
2022-09-12T21:33:33.422Z,10.93
2022-09-12T21:36:06.697Z,10.55
2022-09-12T21:38:33.873Z,10.98
2022-09-12T21:41:18.607Z,11.52
2022-09-12T21:43:45.405Z,10.70
2022-09-12T21:46:12.060Z,11.13
2022-09-12T21:48:38.613Z,11.15
2022-09-12T21:51:05.242Z,10.60
2022-09-12T21:53:32.189Z,10.65
2022-09-12T21:56:03.661Z,10.68
2022-09-12T21:58:30.203Z,10.85
2022-09-12T22:00:56.885Z,10.70
2022-09-12T22:03:23.296Z,10.40
2022-09-12T22:06:04.747Z,10.48
2022-09-12T22:08:33.506Z,10.48
2022-09-12T22:11:02.405Z,10.07
2022-09-12T22:13:32.216Z,9.98
2022-09-12T22:15:58.980Z,10.30
2022-09-12T22:18:25.418Z,9.75
2022-09-12T22:20:59.934Z,10.63
2022-09-12T22:23:44.954Z,10.32
2022-09-12T22:26:11.677Z,9.73
2022-09-12T22:28:38.408Z,9.65
2022-09-12T22:31:06.368Z,9.13
2022-09-12T22:33:32.789Z,9.15
2022-09-12T22:35:59.675Z,9.38
2022-09-12T22:38:26.234Z,9.23
2022-09-12T22:40:52.634Z,9.45
2022-09-12T22:43:19.054Z,9.20
2022-09-12T22:45:45.429Z,9.73
2022-09-12T22:48:11.961Z,9.82
2022-09-12T22:50:38.478Z,9.57
2022-09-12T22:53:04.897Z,9.40
2022-09-12T22:55:31.474Z,9.35
2022-09-12T22:57:57.857Z,9.20
2022-09-12T23:00:24.760Z,9.48
2022-09-12T23:02:51.260Z,9.50
2022-09-12T23:05:17.615Z,9.95
2022-09-12T23:07:44.162Z,9.35
2022-09-12T23:10:10.780Z,9.45
2022-09-12T23:12:37.380Z,9.30
2022-09-12T23:15:04.233Z,10.35
2022-09-12T23:17:30.679Z,10.35
2022-09-12T23:19:57.055Z,10.80
2022-09-12T23:22:23.412Z,10.35
2022-09-12T23:24:49.778Z,9.70
2022-09-12T23:27:16.136Z,9.93
2022-09-12T23:29:42.616Z,10.15
2022-09-12T23:32:09.076Z,9.40
2022-09-12T23:34:35.444Z,9.60
2022-09-12T23:37:01.859Z,8.98
2022-09-12T23:39:28.822Z,9.63
2022-09-12T23:41:55.511Z,9.25
2022-09-12T23:44:21.862Z,9.52
2022-09-12T23:46:48.264Z,9.38
2022-09-12T23:49:14.662Z,9.77
2022-09-12T23:51:41.071Z,9.45
2022-09-12T23:54:07.509Z,10.00
2022-09-12T23:56:34.225Z,9.25
2022-09-12T23:59:00.593Z,9.55
